首页
METAR-TAF:

METAR-TAF

机场 :

Taylor County Airport

Medford, 威斯康辛州, 美国

纬度: 45-06-04N, 经度: 090-18-12W, 海拔: 448米

当前天气观测

该预报发布于31分钟前的00:55 UTC
风速7节,风向
温度 26°C
湿度 89%
气压 1007 hPa
能見度: 16.1公里
散云层高于3600英尺
散云层高于4100英尺
多云层高于6000英尺

METAR: KMDZ 170055Z AUTO 18007KT 10SM SCT036 SCT041 BKN060 26/24 A2973 RMK AO2 T02600235 PWINO

时间: 20:26 (01:26 UTC)


TAF: 丢失

超过4000个机场的气象观测和天气预报(METAR&TAF报告)。

可查询的气象台以黄色和红色小点在地图上表示。

将鼠标移到小点上方,可查看气象台名称。

然后点击查看天气观测和预报。

如需切换地图:点击带黑十字的绿色按钮放大地图;点击带横线的绿色按钮缩小地图;或者点击绿色箭头查看邻近地区的地图。


METAR-TAF: